createdAt,value
2018-07-08T00:01:07.087Z,3.40
2018-07-08T00:03:35.247Z,4.23
2018-07-08T00:06:03.395Z,3.80
2018-07-08T00:08:31.694Z,4.00
2018-07-08T00:11:00.263Z,3.80
2018-07-08T00:13:28.476Z,4.20
2018-07-08T00:15:56.624Z,3.60
2018-07-08T00:18:25.413Z,3.50
2018-07-08T00:20:54.717Z,3.60
2018-07-08T00:23:23.576Z,3.12
2018-07-08T00:25:51.871Z,4.20
2018-07-08T00:28:20.344Z,3.73
2018-07-08T00:30:48.546Z,3.90
2018-07-08T00:33:17.446Z,3.50
2018-07-08T00:35:45.590Z,4.03
2018-07-08T00:38:13.776Z,3.50
2018-07-08T00:40:41.967Z,3.50
2018-07-08T00:43:10.273Z,3.40
2018-07-08T00:45:38.432Z,4.13
2018-07-08T00:48:06.699Z,4.20
2018-07-08T00:50:35.178Z,2.80
2018-07-08T00:53:03.359Z,3.63
2018-07-08T00:55:31.555Z,3.65
2018-07-08T00:57:59.741Z,4.00
2018-07-08T01:00:38.351Z,3.70
2018-07-08T01:03:07.645Z,3.90
2018-07-08T01:05:35.934Z,4.10
2018-07-08T01:08:04.608Z,3.80
2018-07-08T01:10:32.815Z,4.50
2018-07-08T01:13:01.964Z,4.40
2018-07-08T01:15:30.196Z,3.70
2018-07-08T01:17:58.340Z,3.90
2018-07-08T01:20:26.555Z,4.30
2018-07-08T01:22:54.803Z,4.77
2018-07-08T01:25:28.479Z,4.20
2018-07-08T01:27:57.551Z,4.20
2018-07-08T01:30:25.731Z,4.80
2018-07-08T01:32:53.869Z,4.37
2018-07-08T01:35:22.112Z,4.70
2018-07-08T01:37:50.310Z,4.40
2018-07-08T01:40:18.454Z,4.87
2018-07-08T01:42:46.630Z,3.83
2018-07-08T01:45:14.866Z,4.10
2018-07-08T01:47:43.036Z,4.67
2018-07-08T01:50:11.255Z,4.40
2018-07-08T01:52:39.489Z,4.70
2018-07-08T01:55:07.647Z,4.30
2018-07-08T01:57:35.811Z,5.37
2018-07-08T02:00:04.481Z,4.58
2018-07-08T02:02:33.083Z,4.73
2018-07-08T02:05:01.712Z,4.50
2018-07-08T02:07:29.866Z,4.43
2018-07-08T02:09:58.062Z,5.23
2018-07-08T02:12:26.219Z,4.83
2018-07-08T02:14:54.466Z,4.50
2018-07-08T02:17:22.587Z,4.57
2018-07-08T02:19:50.750Z,4.50
2018-07-08T02:22:18.914Z,4.83
2018-07-08T02:24:47.134Z,4.60
2018-07-08T02:27:15.496Z,5.27
2018-07-08T02:29:43.658Z,5.33
2018-07-08T02:32:11.872Z,4.77
2018-07-08T02:34:40.046Z,5.25
2018-07-08T02:37:08.238Z,4.73
2018-07-08T02:39:36.369Z,4.07
2018-07-08T02:42:04.567Z,4.50
2018-07-08T02:44:32.793Z,4.93
2018-07-08T02:47:00.987Z,5.23
2018-07-08T02:49:29.197Z,5.00
2018-07-08T02:51:57.381Z,5.30
2018-07-08T02:54:26.353Z,4.70
2018-07-08T02:56:54.536Z,5.17
2018-07-08T02:59:22.771Z,4.83
2018-07-08T03:01:51.005Z,4.20
2018-07-08T03:04:19.282Z,4.35
2018-07-08T03:06:47.479Z,4.72
2018-07-08T03:09:15.724Z,4.67
2018-07-08T03:11:43.915Z,4.00
2018-07-08T03:14:12.136Z,4.13
2018-07-08T03:16:40.274Z,4.90
2018-07-08T03:19:08.407Z,4.13
2018-07-08T03:21:36.606Z,5.17
2018-07-08T03:24:04.778Z,4.27
2018-07-08T03:26:32.989Z,4.33
2018-07-08T03:29:01.187Z,4.63
2018-07-08T03:31:29.361Z,4.60
2018-07-08T03:33:57.509Z,4.37
2018-07-08T03:36:26.273Z,4.50
2018-07-08T03:38:54.446Z,3.87
2018-07-08T03:41:22.582Z,3.62
2018-07-08T03:43:50.870Z,3.70
2018-07-08T03:46:19.156Z,4.73
2018-07-08T03:48:47.368Z,4.80
2018-07-08T03:51:15.556Z,4.37
2018-07-08T03:53:43.723Z,3.97
2018-07-08T03:56:12.663Z,4.30
2018-07-08T03:58:40.822Z,3.87
2018-07-08T04:01:09.037Z,3.77
2018-07-08T04:03:37.163Z,4.47
2018-07-08T04:06:05.425Z,4.37
2018-07-08T04:08:33.572Z,4.07
2018-07-08T04:11:03.499Z,4.10
2018-07-08T04:13:31.785Z,3.98
2018-07-08T04:16:00.354Z,4.30
2018-07-08T04:18:28.525Z,4.33
2018-07-08T04:20:56.702Z,3.60
2018-07-08T04:23:24.904Z,4.30
2018-07-08T04:25:53.391Z,3.67
2018-07-08T04:28:21.528Z,3.70
2018-07-08T04:30:49.781Z,3.57
2018-07-08T04:33:17.906Z,4.27
2018-07-08T04:35:46.028Z,4.17
2018-07-08T04:38:14.185Z,3.37
2018-07-08T04:40:42.331Z,3.97
2018-07-08T04:43:10.502Z,4.13
2018-07-08T04:45:38.747Z,3.90
2018-07-08T04:48:06.949Z,4.30
2018-07-08T04:50:36.025Z,4.30
2018-07-08T04:53:04.177Z,4.17
2018-07-08T04:55:32.339Z,3.90
2018-07-08T04:58:00.512Z,4.53
2018-07-08T05:00:28.678Z,4.37
2018-07-08T05:02:56.843Z,3.58
2018-07-08T05:05:25.071Z,4.20
2018-07-08T05:07:53.242Z,4.03
2018-07-08T05:10:22.282Z,4.60
2018-07-08T05:12:50.491Z,3.80
2018-07-08T05:15:18.685Z,4.40
2018-07-08T05:17:46.893Z,4.30
2018-07-08T05:20:15.067Z,3.60
2018-07-08T05:22:43.216Z,3.57
2018-07-08T05:25:11.427Z,3.57
2018-07-08T05:27:39.554Z,3.52
2018-07-08T05:30:07.691Z,3.53
2018-07-08T05:32:35.916Z,3.90
2018-07-08T05:35:04.123Z,3.40
2018-07-08T05:37:38.721Z,3.50
2018-07-08T05:40:06.907Z,3.60
2018-07-08T05:42:35.089Z,3.27
2018-07-08T05:45:03.268Z,3.83
2018-07-08T05:47:31.468Z,3.22
2018-07-08T05:50:00.428Z,3.20
2018-07-08T05:52:28.566Z,3.33
2018-07-08T05:54:56.745Z,3.13
2018-07-08T05:57:24.939Z,3.93
2018-07-08T05:59:53.113Z,3.83
2018-07-08T06:02:21.504Z,3.77
2018-07-08T06:04:49.845Z,3.80
2018-07-08T06:07:18.024Z,3.93
2018-07-08T06:09:46.171Z,3.95
2018-07-08T06:12:14.336Z,4.37
2018-07-08T06:14:43.951Z,3.90
2018-07-08T06:17:12.165Z,3.37
2018-07-08T06:19:40.372Z,3.37
2018-07-08T06:22:08.575Z,2.80
2018-07-08T06:24:36.743Z,2.93
2018-07-08T06:27:04.945Z,3.80
2018-07-08T06:29:33.224Z,3.57
2018-07-08T06:32:01.572Z,3.80
2018-07-08T06:34:29.755Z,3.53
2018-07-08T06:36:58.123Z,3.13
2018-07-08T06:39:26.939Z,3.97
2018-07-08T06:41:55.133Z,3.80
2018-07-08T06:44:23.641Z,3.27
2018-07-08T06:46:51.811Z,4.30
2018-07-08T06:56:28.403Z,3.87
2018-07-08T06:58:56.560Z,3.50
2018-07-08T07:01:24.707Z,3.90
2018-07-08T07:03:52.876Z,4.40
2018-07-08T07:06:21.060Z,3.70
2018-07-08T07:08:49.214Z,3.60
2018-07-08T07:11:17.455Z,4.23
2018-07-08T07:13:45.641Z,3.52
2018-07-08T07:16:13.782Z,3.52
2018-07-08T07:18:41.992Z,3.63
2018-07-08T07:21:10.173Z,3.93
2018-07-08T07:23:38.424Z,3.65
2018-07-08T07:26:07.073Z,3.83
2018-07-08T07:28:36.141Z,4.30
2018-07-08T07:31:04.350Z,3.53
2018-07-08T07:33:32.543Z,3.60
2018-07-08T07:36:01.268Z,3.20
2018-07-08T07:38:29.410Z,3.33
2018-07-08T07:40:57.774Z,3.43
2018-07-08T07:43:25.933Z,3.50
2018-07-08T07:45:54.125Z,3.97
2018-07-08T07:48:22.361Z,4.50
2018-07-08T07:50:50.525Z,3.10
2018-07-08T07:53:18.727Z,3.20
2018-07-08T07:55:46.880Z,2.70
2018-07-08T07:58:15.069Z,3.47
2018-07-08T08:00:43.234Z,3.23
2018-07-08T08:03:11.403Z,3.63
2018-07-08T08:05:39.570Z,2.93
2018-07-08T08:08:07.738Z,3.60
2018-07-08T08:10:35.937Z,3.23
2018-07-08T08:13:04.228Z,2.80
2018-07-08T08:15:32.455Z,2.87
2018-07-08T08:18:00.664Z,2.57
2018-07-08T08:20:28.797Z,2.87
2018-07-08T08:22:56.937Z,2.40
2018-07-08T08:25:25.244Z,2.60
2018-07-08T08:27:53.423Z,3.50
2018-07-08T08:30:21.638Z,2.80
2018-07-08T08:32:49.933Z,2.97
2018-07-08T08:35:19.016Z,3.10
2018-07-08T08:37:53.082Z,2.30
2018-07-08T08:40:22.560Z,2.80
2018-07-08T08:42:50.930Z,3.10
2018-07-08T08:45:20.050Z,2.27
2018-07-08T08:47:48.211Z,2.30
2018-07-08T08:50:16.789Z,2.30
2018-07-08T08:52:45.050Z,2.50
2018-07-08T08:55:13.546Z,2.57
2018-07-08T08:57:41.791Z,2.50
2018-07-08T09:00:10.920Z,2.80
2018-07-08T09:02:39.210Z,2.43
2018-07-08T09:05:07.466Z,2.33
2018-07-08T09:07:35.634Z,1.90
2018-07-08T09:10:03.796Z,2.77
2018-07-08T09:12:31.983Z,2.30
2018-07-08T09:15:00.156Z,1.95
2018-07-08T09:17:28.372Z,2.50
2018-07-08T09:19:56.515Z,2.00
2018-07-08T09:22:24.627Z,2.03
2018-07-08T09:24:52.844Z,1.53
2018-07-08T09:27:21.142Z,2.03
2018-07-08T09:29:49.372Z,1.97
2018-07-08T09:32:17.493Z,1.47
2018-07-08T09:34:45.635Z,1.33
2018-07-08T09:37:13.858Z,1.40
2018-07-08T09:39:42.044Z,1.50
2018-07-08T09:42:10.236Z,1.40
2018-07-08T09:44:38.395Z,1.27
2018-07-08T09:47:06.547Z,1.47
2018-07-08T09:49:34.745Z,1.40
2018-07-08T09:52:03.636Z,1.40
2018-07-08T09:54:31.812Z,0.93
2018-07-08T09:57:00.164Z,1.30
2018-07-08T09:59:28.419Z,1.40
2018-07-08T10:01:56.647Z,1.20
2018-07-08T10:04:25.399Z,2.13
2018-07-08T10:06:54.245Z,1.30
2018-07-08T10:09:23.623Z,1.37
2018-07-08T10:11:51.841Z,1.10
2018-07-08T10:14:21.229Z,1.33
2018-07-08T10:16:49.414Z,1.33
2018-07-08T10:19:18.595Z,1.00
2018-07-08T10:21:46.752Z,1.47
2018-07-08T10:24:15.150Z,1.50
2018-07-08T10:26:44.031Z,1.33
2018-07-08T10:29:16.594Z,1.47
2018-07-08T10:31:47.842Z,1.20
2018-07-08T10:34:16.120Z,0.90
2018-07-08T10:36:44.353Z,0.90
2018-07-08T10:39:13.661Z,1.10
2018-07-08T10:41:42.145Z,1.10
2018-07-08T10:44:10.663Z,1.20
2018-07-08T10:56:29.592Z,1.20
2018-07-08T10:58:57.826Z,1.27
2018-07-08T11:01:26.144Z,1.27
2018-07-08T11:03:54.296Z,1.50
2018-07-08T11:06:22.508Z,1.23
2018-07-08T11:08:50.696Z,1.50
2018-07-08T11:11:19.725Z,1.60
2018-07-08T11:13:47.894Z,1.37
2018-07-08T11:16:17.002Z,1.45
2018-07-08T11:18:45.145Z,1.20
2018-07-08T11:21:13.319Z,1.30
2018-07-08T11:23:42.349Z,1.50
2018-07-08T11:26:10.752Z,1.20
2018-07-08T11:36:29.113Z,1.50
2018-07-08T11:38:57.336Z,1.35
2018-07-08T11:41:25.530Z,1.37
2018-07-08T11:43:53.809Z,1.53
2018-07-08T11:46:21.980Z,1.30
2018-07-08T11:48:50.163Z,1.50
2018-07-08T11:51:18.310Z,1.30
2018-07-08T11:53:46.515Z,1.20
2018-07-08T11:56:14.684Z,1.23
2018-07-08T11:58:42.953Z,1.37
2018-07-08T12:01:11.153Z,1.10
2018-07-08T12:03:39.358Z,1.50
2018-07-08T12:06:07.573Z,1.40
2018-07-08T12:08:35.732Z,1.47
2018-07-08T12:11:07.490Z,1.40
2018-07-08T12:13:35.670Z,1.40
2018-07-08T12:16:03.842Z,1.20
2018-07-08T12:18:32.092Z,1.63
2018-07-08T12:21:00.462Z,1.33
2018-07-08T12:23:28.663Z,1.25
2018-07-08T12:25:56.871Z,1.07
2018-07-08T12:28:25.018Z,1.20
2018-07-08T12:30:53.245Z,1.00
2018-07-08T12:33:21.387Z,1.20
2018-07-08T12:35:49.649Z,1.10
2018-07-08T12:38:17.897Z,1.23
2018-07-08T12:40:46.142Z,1.23
2018-07-08T12:43:14.330Z,0.93
2018-07-08T12:45:42.528Z,1.50
2018-07-08T12:48:10.791Z,1.10
2018-07-08T12:50:39.306Z,1.00
2018-07-08T12:53:07.549Z,1.37
2018-07-08T12:55:35.741Z,1.13
2018-07-08T12:58:03.995Z,1.10
2018-07-08T13:00:32.258Z,1.30
2018-07-08T13:03:00.432Z,1.40
2018-07-08T13:05:28.643Z,1.60
2018-07-08T13:07:56.823Z,1.40
2018-07-08T13:10:25.009Z,1.23
2018-07-08T13:12:53.193Z,1.20
2018-07-08T13:15:21.438Z,1.27
2018-07-08T13:17:49.607Z,1.30
2018-07-08T13:20:17.791Z,1.50
2018-07-08T13:22:46.021Z,1.17
2018-07-08T13:25:14.275Z,1.30
2018-07-08T13:27:43.549Z,1.40
2018-07-08T13:30:11.715Z,1.20
2018-07-08T13:32:40.150Z,1.10
2018-07-08T13:35:08.341Z,1.30
2018-07-08T13:37:36.508Z,1.90
2018-07-08T13:40:04.955Z,1.55
2018-07-08T13:42:33.109Z,1.30
2018-07-08T13:45:01.324Z,1.23
2018-07-08T13:47:29.632Z,1.03
2018-07-08T13:49:57.676Z,1.10
2018-07-08T13:52:25.842Z,1.00
2018-07-08T13:54:54.011Z,1.00
2018-07-08T13:57:22.267Z,1.10
2018-07-08T13:59:50.533Z,0.87
2018-07-08T14:02:18.730Z,1.20
2018-07-08T14:04:47.177Z,1.00
2018-07-08T14:07:15.372Z,1.40
2018-07-08T14:09:43.743Z,1.20
2018-07-08T14:12:12.010Z,1.40
2018-07-08T14:14:40.292Z,1.20
2018-07-08T14:17:08.555Z,1.63
2018-07-08T14:19:36.687Z,1.43
2018-07-08T14:22:04.907Z,1.40
2018-07-08T14:24:33.127Z,1.40
2018-07-08T14:27:01.288Z,1.30
2018-07-08T14:29:29.603Z,1.20
2018-07-08T14:31:57.764Z,1.12
2018-07-08T14:34:25.995Z,1.70
2018-07-08T14:36:54.155Z,1.27
2018-07-08T14:39:22.371Z,1.30
2018-07-08T14:41:50.540Z,1.60
2018-07-08T14:44:18.735Z,1.70
2018-07-08T14:46:46.944Z,1.35
2018-07-08T14:49:15.144Z,1.63
2018-07-08T14:51:43.316Z,1.80
2018-07-08T14:54:11.498Z,1.70
2018-07-08T14:56:39.672Z,1.72
2018-07-08T14:59:07.960Z,1.47
2018-07-08T15:01:36.244Z,1.30
2018-07-08T15:04:04.520Z,1.37
2018-07-08T15:06:32.768Z,1.50
2018-07-08T15:09:02.456Z,1.23
2018-07-08T15:11:30.787Z,1.73
2018-07-08T15:13:59.351Z,1.20
2018-07-08T15:16:27.535Z,1.30
2018-07-08T15:18:55.663Z,1.87
2018-07-08T15:21:23.904Z,4.07
2018-07-08T15:23:52.821Z,1.40
2018-07-08T15:26:21.226Z,1.50
2018-07-08T15:28:49.689Z,1.13
2018-07-08T15:31:17.907Z,1.17
2018-07-08T15:33:46.109Z,1.30
2018-07-08T15:36:14.380Z,1.02
2018-07-08T15:38:42.541Z,1.10
2018-07-08T15:41:11.451Z,1.00
2018-07-08T15:43:39.674Z,1.10
2018-07-08T15:46:07.890Z,1.03
2018-07-08T15:48:36.075Z,1.10
2018-07-08T15:51:04.252Z,1.23
2018-07-08T15:53:32.433Z,1.20
2018-07-08T15:56:00.674Z,1.23
2018-07-08T15:58:29.182Z,1.20
2018-07-08T16:00:57.385Z,1.30
2018-07-08T16:03:25.661Z,1.10
2018-07-08T16:05:54.111Z,1.10
2018-07-08T16:08:22.218Z,1.30
2018-07-08T16:10:53.209Z,1.20
2018-07-08T16:13:21.594Z,1.40
2018-07-08T16:15:50.223Z,1.20
2018-07-08T16:18:18.468Z,1.20
2018-07-08T16:20:46.609Z,1.40
2018-07-08T16:23:14.867Z,1.27
2018-07-08T16:25:43.048Z,1.47
2018-07-08T16:28:18.490Z,1.37
2018-07-08T16:30:46.733Z,1.20
2018-07-08T16:33:14.973Z,1.20
2018-07-08T16:35:44.500Z,1.20
2018-07-08T16:38:12.658Z,1.10
2018-07-08T16:40:40.865Z,1.17
2018-07-08T16:43:11.923Z,0.90
2018-07-08T16:45:40.174Z,1.00
2018-07-08T16:48:08.340Z,1.40
2018-07-08T16:50:36.515Z,1.10
2018-07-08T16:53:05.517Z,1.10
2018-07-08T16:55:33.697Z,1.25
2018-07-08T16:58:02.045Z,1.20
2018-07-08T17:00:30.234Z,1.40
2018-07-08T17:02:58.459Z,1.17
2018-07-08T17:05:26.689Z,1.00
2018-07-08T17:07:54.927Z,1.10
2018-07-08T17:10:23.127Z,1.20
2018-07-08T17:12:51.346Z,1.13
2018-07-08T17:15:20.036Z,1.20
2018-07-08T17:17:48.201Z,1.10
2018-07-08T17:20:16.392Z,1.20
2018-07-08T17:22:44.756Z,1.23
2018-07-08T17:25:12.922Z,1.20
2018-07-08T17:27:41.113Z,1.30
2018-07-08T17:30:09.626Z,1.07
2018-07-08T17:32:37.788Z,1.10
2018-07-08T17:35:06.376Z,1.20
2018-07-08T17:37:34.617Z,1.10
2018-07-08T17:40:02.793Z,1.20
2018-07-08T17:42:30.987Z,1.23
2018-07-08T17:44:59.159Z,1.23
2018-07-08T17:47:27.432Z,1.13
2018-07-08T17:49:55.710Z,1.27
2018-07-08T17:52:23.866Z,1.00
2018-07-08T17:54:52.059Z,1.17
2018-07-08T17:57:20.233Z,1.30
2018-07-08T17:59:48.477Z,1.10
2018-07-08T18:02:16.692Z,1.10
2018-07-08T18:04:44.896Z,1.20
2018-07-08T18:07:14.474Z,0.88
2018-07-08T18:09:42.713Z,1.30
2018-07-08T18:12:10.886Z,1.20
2018-07-08T18:14:39.047Z,1.13
2018-07-08T18:26:31.172Z,1.32
2018-07-08T18:28:59.367Z,1.30
2018-07-08T18:31:27.585Z,1.20
2018-07-08T18:33:56.546Z,1.13
2018-07-08T18:36:24.794Z,0.90
2018-07-08T18:38:52.980Z,1.20
2018-07-08T18:41:22.127Z,1.50
2018-07-08T18:43:50.350Z,1.10
2018-07-08T18:46:19.573Z,1.27
2018-07-08T18:48:47.620Z,1.30
2018-07-08T18:51:15.816Z,1.20
2018-07-08T18:53:44.023Z,1.30
2018-07-08T18:56:12.229Z,1.30
2018-07-08T18:58:40.491Z,1.50
2018-07-08T19:01:08.710Z,1.70
2018-07-08T19:03:36.912Z,1.30
2018-07-08T19:06:05.140Z,1.75
2018-07-08T19:08:33.337Z,1.47
2018-07-08T19:11:01.579Z,1.30
2018-07-08T19:13:29.756Z,1.40
2018-07-08T19:15:57.939Z,1.13
2018-07-08T19:18:26.720Z,1.20
2018-07-08T19:20:54.905Z,1.30
2018-07-08T19:23:23.110Z,1.80
2018-07-08T19:25:51.249Z,1.97
2018-07-08T19:28:19.453Z,1.87
2018-07-08T19:30:47.582Z,1.42
2018-07-08T19:33:15.958Z,1.70
2018-07-08T19:35:44.143Z,1.53
2018-07-08T19:38:12.345Z,1.27
2018-07-08T19:40:40.920Z,1.50
2018-07-08T19:43:09.089Z,2.00
2018-07-08T19:45:37.441Z,1.50
2018-07-08T19:48:05.790Z,1.70
2018-07-08T19:56:29.593Z,1.40
2018-07-08T19:58:58.268Z,1.47
2018-07-08T20:01:27.851Z,1.77
2018-07-08T20:06:40.203Z,1.55
2018-07-08T20:11:41.798Z,1.33
2018-07-08T20:14:15.602Z,1.50
2018-07-08T20:16:46.943Z,1.40
2018-07-08T20:19:15.918Z,1.80
2018-07-08T20:21:57.130Z,1.77
2018-07-08T20:24:29.328Z,1.43
2018-07-08T20:27:02.184Z,1.43
2018-07-08T20:29:33.516Z,1.40
2018-07-08T20:35:04.210Z,1.80
2018-07-08T20:37:36.855Z,1.50
2018-07-08T20:40:05.370Z,1.55
2018-07-08T20:42:42.596Z,1.80
2018-07-08T20:59:20.951Z,1.50
2018-07-08T21:06:48.805Z,1.43
2018-07-08T21:10:52.303Z,1.60
2018-07-08T21:13:49.276Z,1.50
2018-07-08T21:17:30.688Z,1.67
2018-07-08T21:50:45.614Z,1.62
2018-07-08T21:53:26.886Z,1.80
2018-07-08T21:55:55.444Z,1.60
2018-07-08T22:14:57.514Z,2.05
2018-07-08T22:20:54.042Z,2.00
2018-07-08T22:29:14.742Z,1.98
2018-07-08T22:31:43.649Z,1.83
2018-07-08T22:34:11.916Z,1.50
2018-07-08T22:36:40.178Z,1.87
2018-07-08T22:39:09.568Z,1.70
2018-07-08T22:41:37.813Z,1.53
2018-07-08T22:44:06.437Z,1.70
2018-07-08T22:46:34.788Z,1.63
2018-07-08T22:49:03.001Z,1.70
2018-07-08T22:51:31.478Z,1.87
2018-07-08T22:53:59.653Z,1.60
2018-07-08T22:56:27.843Z,1.57
2018-07-08T22:58:56.161Z,1.53
2018-07-08T23:01:29.977Z,1.57
2018-07-08T23:04:00.441Z,1.87
2018-07-08T23:06:28.654Z,1.40
2018-07-08T23:08:57.085Z,1.40
2018-07-08T23:11:26.047Z,1.77
2018-07-08T23:13:55.230Z,2.00
2018-07-08T23:16:24.624Z,1.47
2018-07-08T23:18:52.864Z,1.40
2018-07-08T23:21:21.136Z,1.40
2018-07-08T23:23:49.315Z,1.62
2018-07-08T23:26:17.582Z,1.43
2018-07-08T23:28:45.806Z,1.37
2018-07-08T23:31:14.233Z,1.50
2018-07-08T23:33:42.646Z,1.40
2018-07-08T23:36:11.286Z,1.90
2018-07-08T23:38:39.611Z,1.70
2018-07-08T23:41:08.899Z,1.23
2018-07-08T23:43:37.106Z,2.10
2018-07-08T23:46:05.594Z,1.50
2018-07-08T23:48:34.183Z,1.80
2018-07-08T23:51:02.351Z,1.70
2018-07-08T23:53:30.729Z,1.60
2018-07-08T23:55:58.984Z,1.50
2018-07-08T23:58:27.314Z,1.63
